Terminal Aerodrome Forecast
Issued by NWS Tulsa, OK

Home | Current Version | Previous Version | Text Only | Print | Product List | Glossary On
Versions: 1 2 3 4 5 6 7 8 9 10 11 12 13 14
000
FTUS44 KTSA 281124
TAFTUL
TAF
KTUL 281124Z 2812/2912 VRB03KT P6SM BKN120
     FM281500 16006KT P6SM FEW060 BKN250
     FM281800 16007KT P6SM BKN050
     FM290100 11004KT P6SM SCT250=

USA.gov is the U.S. government's official web portal to all federal, state and local government web resources and services.